Time;durP1;ratioP1;P1;durP2;ratioP2;P2;SDS_P1;SDS_P2;PMS_P1;PMS_P2;Temp;Humidity;BMP_temperature;BMP_pressure;BME280_temperature;BME280_humidity;BME280_pressure;Samples;Min_cycle;Max_cycle;Signal;HPM_P1;HPM_P2
2023/04/25 00:02:08;;;;;;;18.93;3.47;;;7.20;97.60;;;;;;5046468;28;20568;-68
2023/04/25 00:04:37;;;;;;;13.50;3.20;;;7.20;96.70;;;;;;5063853;28;20563;-68
2023/04/25 00:07:06;;;;;;;14.57;3.60;;;7.20;94.80;;;;;;5051054;28;20662;-68
2023/04/25 00:09:33;;;;;;;15.30;3.60;;;7.20;94.80;;;;;;5057886;28;20774;-68
2023/04/25 00:12:01;;;;;;;16.33;3.33;;;7.10;94.60;;;;;;5031264;28;20315;-68
2023/04/25 00:14:28;;;;;;;10.87;3.80;;;7.10;93.60;;;;;;5033611;28;20204;-68
2023/04/25 00:16:55;;;;;;;13.97;3.30;;;7.10;92.50;;;;;;5033777;28;20210;-68
2023/04/25 00:19:22;;;;;;;12.50;3.73;;;7.10;92.90;;;;;;5038807;28;20216;-68
2023/04/25 00:21:49;;;;;;;13.83;3.57;;;7.00;90.30;;;;;;5051081;28;20231;-68
2023/04/25 00:24:17;;;;;;;22.03;4.00;;;7.00;90.90;;;;;;5040768;28;20204;-68
2023/04/25 00:26:44;;;;;;;17.07;3.30;;;7.00;91.00;;;;;;5028500;28;20523;-68
2023/04/25 00:29:11;;;;;;;18.60;3.57;;;7.00;90.50;;;;;;5035593;28;20203;-68
2023/04/25 00:31:38;;;;;;;11.20;3.30;;;7.00;87.60;;;;;;5023817;28;20207;-68
2023/04/25 00:34:05;;;;;;;20.00;3.93;;;7.00;88.30;;;;;;5041233;28;20565;-68
2023/04/25 00:36:31;;;;;;;15.50;3.63;;;7.00;80.90;;;;;;5052636;28;20199;-68
2023/04/25 00:38:58;;;;;;;18.27;3.30;;;7.00;75.20;;;;;;5037598;28;20616;-68
2023/04/25 00:41:27;;;;;;;17.67;3.43;;;7.00;78.20;;;;;;5051146;28;20202;-68
2023/04/25 00:43:55;;;;;;;18.23;3.57;;;6.90;68.50;;;;;;5020423;28;20204;-68
2023/04/25 00:46:22;;;;;;;14.50;3.40;;;7.00;69.90;;;;;;5023912;28;20211;-68
2023/04/25 00:48:49;;;;;;;17.23;4.10;;;6.90;70.00;;;;;;5030767;28;20809;-68
2023/04/25 00:51:20;;;;;;;12.20;3.10;;;6.90;68.30;;;;;;5049963;28;20768;-68
2023/04/25 00:53:48;;;;;;;17.27;3.47;;;6.90;61.10;;;;;;5023511;28;20256;-68
2023/04/25 00:56:15;;;;;;;16.43;4.10;;;6.90;56.80;;;;;;5051172;28;20203;-68
2023/04/25 00:58:43;;;;;;;21.47;3.73;;;6.90;57.80;;;;;;5023918;28;20900;-68
2023/04/25 01:01:11;;;;;;;11.63;3.17;;;6.90;35.20;;;;;;5032117;28;20236;-68
2023/04/25 01:03:41;;;;;;;15.10;3.70;;;6.80;19.00;;;;;;5024207;28;20204;-68
2023/04/25 01:06:09;;;;;;;12.37;3.07;;;6.80;15.00;;;;;;5040942;28;20326;-68
2023/04/25 01:08:36;;;;;;;8.07;2.83;;;6.80;17.50;;;;;;5049672;28;20203;-68
2023/04/25 01:11:04;;;;;;;14.77;3.17;;;6.80;3.70;;;;;;5036077;28;20212;-68
2023/04/25 01:13:31;;;;;;;14.07;3.10;;;6.70;10.10;;;;;;5029203;28;24337;-68
2023/04/25 01:16:00;;;;;;;18.83;3.50;;;6.70;16.70;;;;;;5028640;28;20307;-68
2023/04/25 01:18:27;;;;;;;9.87;3.20;;;6.70;23.70;;;;;;5020395;28;20207;-68
2023/04/25 01:20:54;;;;;;;11.87;3.10;;;6.70;23.40;;;;;;5035161;28;24900;-68
2023/04/25 01:23:23;;;;;;;14.03;3.40;;;6.70;21.30;;;;;;5049963;28;20207;-68
2023/04/25 01:25:50;;;;;;;14.70;3.53;;;6.60;22.20;;;;;;5032923;28;20572;-68
2023/04/25 01:28:17;;;;;;;16.07;4.10;;;6.60;22.60;;;;;;5028191;28;20205;-68
2023/04/25 01:30:44;;;;;;;14.77;3.03;;;6.50;10.70;;;;;;5024821;28;21145;-68
2023/04/25 01:33:12;;;;;;;14.90;3.30;;;6.50;14.50;;;;;;5031972;28;20223;-68
2023/04/25 01:35:38;;;;;;;11.20;3.03;;;6.40;10.50;;;;;;5044625;28;20337;-68
2023/04/25 01:38:05;;;;;;;9.90;2.97;;;6.40;17.60;;;;;;5054039;28;20205;-68
2023/04/25 01:40:34;;;;;;;16.53;3.57;;;6.30;15.00;;;;;;5045392;28;20570;-67
2023/04/25 01:43:01;;;;;;;14.97;3.23;;;6.30;17.50;;;;;;5049161;28;20429;-68
2023/04/25 01:45:28;;;;;;;11.40;2.80;;;6.20;23.80;;;;;;5036576;28;20204;-67
2023/04/25 01:47:59;;;;;;;9.33;2.80;;;6.20;26.20;;;;;;5042443;28;20637;-67
2023/04/25 01:50:26;;;;;;;10.07;2.73;;;6.10;30.80;;;;;;5023519;28;20311;-67
2023/04/25 01:52:53;;;;;;;11.23;2.90;;;6.10;29.70;;;;;;5052045;28;20215;-67
2023/04/25 01:55:20;;;;;;;11.63;2.93;;;6.00;31.50;;;;;;5057086;28;20200;-68
2023/04/25 01:57:48;;;;;;;12.37;3.30;;;6.00;33.50;;;;;;5038305;28;20222;-67
2023/04/25 02:00:15;;;;;;;14.83;3.67;;;6.00;36.90;;;;;;5038512;28;20216;-68
2023/04/25 02:02:42;;;;;;;12.40;3.20;;;6.00;38.60;;;;;;5027934;28;20208;-68
2023/04/25 02:05:09;;;;;;;22.57;3.20;;;5.90;39.60;;;;;;5030234;28;21119;-68
2023/04/25 02:07:36;;;;;;;11.50;2.60;;;5.90;44.70;;;;;;5042605;28;20317;-67
2023/04/25 02:10:03;;;;;;;14.47;2.73;;;5.90;46.30;;;;;;5052120;28;20640;-67
2023/04/25 02:12:30;;;;;;;13.70;3.20;;;5.90;47.20;;;;;;5046219;28;20200;-68
2023/04/25 02:14:58;;;;;;;12.83;3.33;;;5.90;48.40;;;;;;5026861;28;20328;-68
2023/04/25 02:17:26;;;;;;;17.20;2.97;;;5.90;49.30;;;;;;5041439;28;20566;-68
2023/04/25 02:19:52;;;;;;;10.77;2.97;;;5.90;48.60;;;;;;5008567;28;20398;-68
2023/04/25 02:22:19;;;;;;;7.80;2.90;;;5.90;50.30;;;;;;5040033;28;20224;-67
2023/04/25 02:24:47;;;;;;;19.03;3.47;;;5.90;53.80;;;;;;5048052;28;20247;-67
2023/04/25 02:27:13;;;;;;;22.37;3.27;;;5.90;56.10;;;;;;5049243;28;20211;-67
2023/04/25 02:29:40;;;;;;;13.00;2.50;;;6.00;58.10;;;;;;5034718;28;20208;-68
2023/04/25 02:32:08;;;;;;;12.73;2.97;;;6.00;56.80;;;;;;5028957;28;21815;-67
2023/04/25 02:34:35;;;;;;;8.30;3.30;;;6.00;55.10;;;;;;5004748;28;20841;-67
2023/04/25 02:37:02;;;;;;;15.00;3.33;;;6.10;56.20;;;;;;5027907;28;20208;-67
2023/04/25 02:39:29;;;;;;;17.10;4.13;;;6.10;51.30;;;;;;5055809;28;20893;-67
2023/04/25 02:41:55;;;;;;;10.50;3.33;;;6.20;51.30;;;;;;5056472;28;20450;-67
2023/04/25 02:44:22;;;;;;;8.27;2.70;;;6.20;52.10;;;;;;5046803;28;20308;-68
2023/04/25 02:46:49;;;;;;;18.33;3.40;;;6.20;52.80;;;;;;5033644;28;20206;-68
2023/04/25 02:49:17;;;;;;;9.87;2.47;;;6.10;51.70;;;;;;5037087;28;20211;-68
2023/04/25 02:51:44;;;;;;;12.63;2.83;;;6.20;53.20;;;;;;5016817;28;20339;-68
2023/04/25 02:54:10;;;;;;;14.03;2.93;;;6.20;51.70;;;;;;5052812;28;20207;-68
2023/04/25 02:56:37;;;;;;;9.73;2.33;;;6.10;52.50;;;;;;5049804;28;20798;-68
2023/04/25 02:59:04;;;;;;;14.70;2.63;;;6.10;49.70;;;;;;5039348;28;20203;-68
2023/04/25 03:01:31;;;;;;;9.77;2.67;;;6.10;46.80;;;;;;5041121;28;20230;-67
2023/04/25 03:03:58;;;;;;;9.93;2.63;;;6.00;46.20;;;;;;5016957;28;20328;-68
2023/04/25 03:06:26;;;;;;;12.20;2.97;;;6.00;50.50;;;;;;5026626;28;20203;-67
2023/04/25 03:08:53;;;;;;;8.10;2.87;;;5.90;46.70;;;;;;5037149;28;20429;-67
2023/04/25 03:11:21;;;;;;;8.40;3.10;;;5.90;45.30;;;;;;5055585;28;21034;-67
2023/04/25 03:13:47;;;;;;;12.37;3.20;;;5.80;43.40;;;;;;5049672;28;20521;-67
2023/04/25 03:16:14;;;;;;;8.07;2.33;;;5.70;45.50;;;;;;5044244;28;20204;-67
2023/04/25 03:18:41;;;;;;;14.30;2.87;;;5.70;47.60;;;;;;5018706;28;20512;-67
2023/04/25 03:21:08;;;;;;;15.67;2.67;;;5.70;43.20;;;;;;5044905;28;20240;-67
2023/04/25 03:23:36;;;;;;;13.43;2.50;;;5.60;46.60;;;;;;5018781;28;20241;-67
2023/04/25 03:26:03;;;;;;;9.27;3.27;;;5.60;47.40;;;;;;5053682;28;20190;-67
2023/04/25 03:28:29;;;;;;;9.90;2.17;;;5.60;46.70;;;;;;5050684;28;20649;-67
2023/04/25 03:30:56;;;;;;;10.43;2.47;;;5.60;45.00;;;;;;5038766;28;20203;-67
2023/04/25 03:33:23;;;;;;;10.73;2.27;;;5.50;46.50;;;;;;5019628;28;20359;-67
2023/04/25 03:35:50;;;;;;;8.23;2.93;;;5.50;43.60;;;;;;5020363;28;20206;-67
2023/04/25 03:38:18;;;;;;;9.20;2.73;;;5.60;41.00;;;;;;5010077;28;21290;-67
2023/04/25 03:40:46;;;;;;;14.03;2.87;;;5.50;36.10;;;;;;5052832;28;20767;-67
2023/04/25 03:43:13;;;;;;;8.10;2.73;;;5.40;29.90;;;;;;5049762;28;20228;-67
2023/04/25 03:45:39;;;;;;;15.57;2.77;;;5.40;26.60;;;;;;5044535;28;20206;-67
2023/04/25 03:48:06;;;;;;;10.53;2.33;;;5.40;29.20;;;;;;5026305;28;20200;-67
2023/04/25 03:50:33;;;;;;;10.60;2.53;;;5.40;25.30;;;;;;5045890;28;20212;-67
2023/04/25 03:53:00;;;;;;;8.77;2.53;;;5.50;24.50;;;;;;5013532;28;20963;-67
2023/04/25 03:55:26;;;;;;;12.90;3.03;;;5.50;24.10;;;;;;5047654;28;20207;-67
2023/04/25 03:57:55;;;;;;;8.20;2.43;;;5.50;20.30;;;;;;5050923;28;20995;-67
2023/04/25 04:00:21;;;;;;;13.37;3.07;;;5.50;12.30;;;;;;5058081;28;20197;-67
2023/04/25 04:02:48;;;;;;;5.07;2.23;;;5.50;5.60;;;;;;5047017;28;20211;-67
2023/04/25 04:05:15;;;;;;;11.40;2.23;;;5.50;9.50;;;;;;5033734;28;20435;-67
2023/04/25 04:07:42;;;;;;;12.87;2.67;;;5.50;12.50;;;;;;5035185;28;20313;-67
2023/04/25 04:10:10;;;;;;;9.73;1.90;;;5.80;4.90;;;;;;5021941;28;20773;-68
2023/04/25 04:12:37;;;;;;;9.20;2.10;;;5.60;1.00;;;;;;5054809;28;20204;-67
2023/04/25 04:15:06;;;;;;;11.03;2.20;;;5.60;1.00;;;;;;5036160;28;20202;-67
2023/04/25 04:17:34;;;;;;;12.10;2.33;;;5.50;1.00;;;;;;5042752;28;20208;-67
2023/04/25 04:20:00;;;;;;;7.20;2.50;;;5.60;1.00;;;;;;5027773;28;20482;-67
2023/04/25 04:22:27;;;;;;;6.57;1.90;;;5.60;8.40;;;;;;5047749;28;20240;-67
2023/04/25 04:24:54;;;;;;;6.83;2.07;;;5.50;9.90;;;;;;5024918;28;20352;-67
2023/04/25 04:27:22;;;;;;;11.80;2.63;;;5.50;16.40;;;;;;5058544;28;20208;-67
2023/04/25 04:29:50;;;;;;;12.93;2.23;;;5.60;20.80;;;;;;5045306;28;20977;-67
2023/04/25 04:32:18;;;;;;;15.77;2.23;;;5.60;25.30;;;;;;5034729;28;20203;-67
2023/04/25 04:34:47;;;;;;;6.83;1.97;;;5.60;25.30;;;;;;5046798;28;20276;-67
2023/04/25 04:37:14;;;;;;;6.37;1.90;;;5.60;25.30;;;;;;5023776;28;20224;-67
2023/04/25 04:39:41;;;;;;;7.13;1.67;;;5.60;25.00;;;;;;5047401;28;20919;-67
2023/04/25 04:42:08;;;;;;;12.03;2.87;;;5.60;28.70;;;;;;5032057;28;20680;-67
2023/04/25 04:44:36;;;;;;;12.50;2.33;;;5.70;35.40;;;;;;5044545;28;20212;-67
2023/04/25 04:47:05;;;;;;;9.83;2.30;;;5.70;33.20;;;;;;5021023;28;20603;-67
2023/04/25 04:49:34;;;;;;;6.37;2.57;;;5.80;34.60;;;;;;5053094;28;20206;-67
2023/04/25 04:52:00;;;;;;;4.83;1.97;;;5.80;35.60;;;;;;5001800;28;20369;-67
2023/04/25 04:54:27;;;;;;;5.30;1.97;;;5.80;30.60;;;;;;5058510;28;20201;-67
2023/04/25 04:56:54;;;;;;;4.57;2.13;;;5.80;28.40;;;;;;5018068;28;20229;-67
2023/04/25 04:59:21;;;;;;;9.77;2.53;;;5.80;31.60;;;;;;5044993;28;20707;-67
2023/04/25 05:01:48;;;;;;;14.60;2.33;;;5.80;27.50;;;;;;5035636;28;20574;-67
2023/04/25 05:04:15;;;;;;;6.80;2.17;;;5.80;24.90;;;;;;5034982;28;20203;-67
2023/04/25 05:06:44;;;;;;;7.07;2.20;;;5.80;23.30;;;;;;5014756;28;20757;-66
2023/04/25 05:09:10;;;;;;;9.93;1.87;;;5.80;22.40;;;;;;5038016;28;20226;-67
2023/04/25 05:11:37;;;;;;;7.10;2.40;;;5.80;23.90;;;;;;5032937;28;20597;-67
2023/04/25 05:14:04;;;;;;;10.73;2.43;;;5.80;28.10;;;;;;5048465;28;20425;-67
2023/04/25 05:16:31;;;;;;;7.97;1.77;;;5.80;25.80;;;;;;5037235;28;20223;-67
2023/04/25 05:18:57;;;;;;;7.43;2.23;;;5.90;27.10;;;;;;5040978;28;20198;-67
2023/04/25 05:21:25;;;;;;;3.63;1.70;;;6.10;52.50;;;;;;5051282;28;20721;-67
2023/04/25 05:23:53;;;;;;;13.93;2.30;;;6.30;41.40;;;;;;5037633;28;20231;-67
2023/04/25 05:26:20;;;;;;;10.53;2.50;;;6.20;18.90;;;;;;5030804;28;20897;-67
2023/04/25 05:28:47;;;;;;;11.43;2.47;;;6.10;10.90;;;;;;5050032;28;20224;-66
2023/04/25 05:31:14;;;;;;;9.37;1.90;;;6.00;3.80;;;;;;5045215;28;21445;-67
2023/04/25 05:33:41;;;;;;;2.67;1.50;;;5.90;5.20;;;;;;5063094;28;20244;-67
2023/04/25 05:36:08;;;;;;;11.90;1.93;;;5.80;7.90;;;;;;5056962;28;20472;-65
2023/04/25 05:38:35;;;;;;;5.50;2.00;;;5.80;12.20;;;;;;5038311;28;20230;-66
2023/04/25 05:41:03;;;;;;;9.33;2.17;;;5.70;13.00;;;;;;5030470;28;20735;-67
2023/04/25 05:43:30;;;;;;;7.40;2.00;;;5.80;21.30;;;;;;5058929;28;20216;-66
2023/04/25 05:45:57;;;;;;;6.20;1.50;;;5.80;25.10;;;;;;5040445;28;20626;-66
2023/04/25 05:48:24;;;;;;;8.73;1.90;;;5.90;30.00;;;;;;5054894;28;20218;-66
2023/04/25 05:50:51;;;;;;;6.70;2.40;;;6.00;29.60;;;;;;5051751;28;20212;-66
2023/04/25 05:53:18;;;;;;;10.60;2.53;;;6.00;24.30;;;;;;5039864;28;20200;-66
2023/04/25 05:55:44;;;;;;;8.30;2.40;;;6.10;27.10;;;;;;5040866;28;20222;-67
2023/04/25 05:58:13;;;;;;;7.87;1.90;;;6.10;25.40;;;;;;5050049;28;20312;-66
2023/04/25 06:00:41;;;;;;;3.37;1.73;;;6.10;23.90;;;;;;5056814;28;20569;-66
2023/04/25 06:03:09;;;;;;;7.63;1.90;;;6.20;21.40;;;;;;5043353;28;20599;-66
2023/04/25 06:05:36;;;;;;;6.00;1.90;;;6.10;26.10;;;;;;5062975;28;20484;-67
2023/04/25 06:08:02;;;;;;;7.40;2.10;;;6.20;25.10;;;;;;5012971;28;20195;-66
2023/04/25 06:10:29;;;;;;;8.33;2.13;;;6.20;20.40;;;;;;5062086;28;20206;-66
2023/04/25 06:12:56;;;;;;;8.23;1.87;;;6.30;24.10;;;;;;5026568;28;20614;-66
2023/04/25 06:15:24;;;;;;;10.23;1.80;;;6.30;21.00;;;;;;5059140;28;20200;-67
2023/04/25 06:17:51;;;;;;;7.73;2.30;;;6.30;16.60;;;;;;5051600;28;20765;-66
2023/04/25 06:20:19;;;;;;;14.17;2.27;;;6.30;10.40;;;;;;5057501;28;20209;-66
2023/04/25 06:22:46;;;;;;;2.63;1.40;;;6.20;16.90;;;;;;5060675;28;20232;-66
2023/04/25 06:25:13;;;;;;;6.70;1.60;;;5.90;11.00;;;;;;5043801;28;20206;-66
2023/04/25 06:27:39;;;;;;;3.93;1.57;;;5.60;22.80;;;;;;5024107;28;20933;-66
2023/04/25 06:30:07;;;;;;;11.57;1.80;;;5.60;31.10;;;;;;5058469;28;20204;-66
2023/04/25 06:32:36;;;;;;;6.63;1.60;;;5.60;30.40;;;;;;5047242;28;20618;-66
2023/04/25 06:35:03;;;;;;;5.90;1.60;;;5.60;24.00;;;;;;5058886;28;20200;-66
2023/04/25 06:37:30;;;;;;;5.63;1.80;;;5.60;13.50;;;;;;5060295;28;20224;-66
2023/04/25 06:39:56;;;;;;;4.93;1.60;;;5.70;13.10;;;;;;5038208;28;20665;-66
2023/04/25 06:42:23;;;;;;;9.37;2.20;;;5.80;17.90;;;;;;5033289;28;20232;-66
2023/04/25 06:44:50;;;;;;;6.67;1.83;;;5.80;25.80;;;;;;5050111;28;20322;-66
2023/04/25 06:47:17;;;;;;;13.40;2.30;;;5.90;35.40;;;;;;5062212;28;20192;-66
2023/04/25 06:49:45;;;;;;;10.47;2.10;;;6.10;37.60;;;;;;5047634;28;20210;-66
2023/04/25 06:52:12;;;;;;;10.83;1.73;;;6.10;41.70;;;;;;5058885;28;20589;-66
2023/04/25 06:54:38;;;;;;;10.60;1.83;;;6.20;36.30;;;;;;5037505;28;20803;-66
2023/04/25 06:57:05;;;;;;;9.67;2.17;;;6.20;31.90;;;;;;5059947;28;20209;-66
2023/04/25 06:59:32;;;;;;;9.53;2.00;;;6.30;26.70;;;;;;5021340;28;20677;-66
2023/04/25 07:01:59;;;;;;;8.30;2.27;;;6.70;17.20;;;;;;5041721;28;21108;-66
2023/04/25 07:04:26;;;;;;;11.07;2.33;;;6.30;15.10;;;;;;5044896;28;20196;-66
2023/04/25 07:06:54;;;;;;;4.53;1.73;;;6.30;16.50;;;;;;5048923;28;20207;-66
2023/04/25 07:09:21;;;;;;;7.03;1.93;;;6.30;6.50;;;;;;5044165;28;20225;-66
2023/04/25 07:11:48;;;;;;;6.40;1.70;;;6.50;12.50;;;;;;5037956;28;20196;-66
2023/04/25 07:14:15;;;;;;;6.80;2.07;;;6.50;1.70;;;;;;5031569;28;20211;-66
2023/04/25 07:16:41;;;;;;;10.47;2.20;;;6.60;1.00;;;;;;5050382;28;20514;-66
2023/04/25 07:19:08;;;;;;;6.77;2.00;;;6.60;1.00;;;;;;5060944;28;20198;-66
2023/04/25 07:21:36;;;;;;;6.30;1.70;;;6.90;1.00;;;;;;5034011;28;20612;-66
2023/04/25 07:24:04;;;;;;;7.20;1.70;;;7.00;1.00;;;;;;5062241;28;20200;-66
2023/04/25 07:26:31;;;;;;;8.30;2.27;;;7.10;1.30;;;;;;5040304;28;20447;-66
2023/04/25 07:28:58;;;;;;;8.03;1.80;;;7.10;99.90;;;;;;5034035;28;20213;-66
2023/04/25 07:31:25;;;;;;;7.23;2.10;;;7.20;99.90;;;;;;5047589;28;20203;-66
2023/04/25 07:33:52;;;;;;;6.27;2.43;;;7.20;99.90;;;;;;5059365;28;20679;-66
2023/04/25 07:36:19;;;;;;;8.33;1.57;;;7.10;99.90;;;;;;5045176;28;20210;-65
2023/04/25 07:38:45;;;;;;;7.87;1.63;;;7.00;99.90;;;;;;5049001;28;20598;-65
2023/04/25 07:41:13;;;;;;;8.90;1.70;;;7.00;99.90;;;;;;5053790;28;20191;-65
2023/04/25 07:43:40;;;;;;;4.80;1.67;;;7.00;99.90;;;;;;5039835;28;20730;-65
2023/04/25 07:46:07;;;;;;;9.13;1.67;;;6.90;99.90;;;;;;5034907;28;20472;-65
2023/04/25 07:48:34;;;;;;;3.43;1.43;;;6.90;99.90;;;;;;5055970;28;20481;-65
2023/04/25 07:51:00;;;;;;;6.93;1.63;;;6.90;99.90;;;;;;5049802;28;20195;-65
2023/04/25 07:53:27;;;;;;;5.53;1.97;;;6.90;99.90;;;;;;5040873;28;20216;-65
2023/04/25 07:55:54;;;;;;;10.13;1.83;;;6.90;99.90;;;;;;5055430;28;20284;-65
2023/04/25 07:58:22;;;;;;;4.93;1.70;;;7.00;99.90;;;;;;5032282;28;20223;-65
2023/04/25 08:00:49;;;;;;;3.30;1.33;;;7.10;99.90;;;;;;5025490;28;20570;-65
2023/04/25 08:03:16;;;;;;;6.87;1.77;;;7.00;99.90;;;;;;5064995;28;20234;-65
2023/04/25 08:05:43;;;;;;;6.27;1.40;;;7.10;99.90;;;;;;5060568;28;20230;-65
2023/04/25 08:08:10;;;;;;;6.87;1.63;;;7.20;99.90;;;;;;5051740;28;20207;-66
2023/04/25 08:10:37;;;;;;;10.17;1.40;;;7.10;99.90;;;;;;5061764;28;20212;-65
2023/04/25 08:13:03;;;;;;;7.03;1.40;;;7.30;99.90;;;;;;5045895;28;20203;-65
2023/04/25 08:15:32;;;;;;;4.87;1.70;;;7.20;99.90;;;;;;5035588;28;22380;-66
2023/04/25 08:17:59;;;;;;;7.40;1.83;;;7.20;99.90;;;;;;5069167;28;20238;-65
2023/04/25 08:20:26;;;;;;;5.53;1.73;;;7.20;99.90;;;;;;5062500;28;20199;-65
2023/04/25 08:22:52;;;;;;;4.20;0.97;;;7.20;99.90;;;;;;5052895;28;20603;-65
2023/04/25 08:25:19;;;;;;;3.57;1.13;;;7.30;99.90;;;;;;5066022;28;20680;-65
2023/04/25 08:27:46;;;;;;;4.90;1.33;;;7.30;99.90;;;;;;5067887;28;20226;-65
2023/04/25 08:30:14;;;;;;;4.13;1.43;;;7.30;99.90;;;;;;5042583;28;20216;-65
2023/04/25 08:32:42;;;;;;;4.73;1.43;;;7.40;99.90;;;;;;5036036;28;20450;-65
2023/04/25 08:35:10;;;;;;;4.37;1.33;;;7.50;99.90;;;;;;5064285;28;20208;-65
2023/04/25 08:37:37;;;;;;;5.87;1.37;;;7.60;99.90;;;;;;5049217;28;20204;-65
2023/04/25 08:40:06;;;;;;;3.07;1.20;;;7.80;99.90;;;;;;5063286;28;20263;-65
2023/04/25 08:42:35;;;;;;;5.13;1.80;;;7.90;99.90;;;;;;5062773;28;20321;-65
2023/04/25 08:45:03;;;;;;;4.90;1.40;;;8.00;99.90;;;;;;5045883;28;20265;-65
2023/04/25 08:47:34;;;;;;;5.57;1.40;;;8.20;99.90;;;;;;5038225;28;20804;-65
2023/04/25 08:50:04;;;;;;;3.53;1.33;;;8.30;99.90;;;;;;5061534;28;20228;-65
2023/04/25 08:52:36;;;;;;;1.10;0.93;;;8.30;99.90;;;;;;5047109;28;20201;-65
2023/04/25 08:55:05;;;;;;;6.47;1.20;;;8.10;99.90;;;;;;5063673;28;20204;-65
2023/04/25 08:57:32;;;;;;;3.67;1.00;;;7.90;99.90;;;;;;5064808;28;20407;-64
2023/04/25 09:00:00;;;;;;;7.37;1.93;;;7.70;99.90;;;;;;5046541;28;20579;-64
2023/04/25 09:02:27;;;;;;;7.83;1.50;;;7.10;99.90;;;;;;5038595;28;20208;-65
2023/04/25 09:04:55;;;;;;;3.30;1.27;;;6.60;99.90;;;;;;5065337;28;20498;-64
2023/04/25 09:07:25;;;;;;;2.13;0.93;;;6.30;99.90;;;;;;5047579;28;20552;-64
2023/04/25 09:09:52;;;;;;;7.17;1.33;;;6.20;99.90;;;;;;5064407;28;20200;-65
2023/04/25 09:12:20;;;;;;;2.80;1.00;;;6.10;99.90;;;;;;5059018;28;20204;-64
2023/04/25 09:15:03;;;;;;;3.07;0.90;;;6.00;99.90;;;;;;5065281;28;20795;-64
2023/04/25 09:17:30;;;;;;;2.70;0.73;;;6.00;99.90;;;;;;5036571;28;20789;-64
2023/04/25 09:20:07;;;;;;;2.27;1.00;;;6.00;99.90;;;;;;5034758;28;20813;-64
2023/04/25 09:22:35;;;;;;;1.10;0.70;;;6.10;99.90;;;;;;5057283;28;20270;-64
2023/04/25 09:25:06;;;;;;;3.07;1.00;;;6.20;99.90;;;;;;5051111;28;20617;-64
2023/04/25 09:27:33;;;;;;;3.40;1.47;;;6.30;99.90;;;;;;5064762;28;20602;-64
2023/04/25 09:30:00;;;;;;;1.93;1.00;;;6.40;99.90;;;;;;5067454;28;20212;-64
2023/04/25 09:32:28;;;;;;;5.87;1.13;;;6.70;99.90;;;;;;5038397;28;20617;-65
2023/04/25 09:34:56;;;;;;;5.27;1.07;;;7.00;99.90;;;;;;5040071;28;20208;-65
2023/04/25 09:37:24;;;;;;;1.63;0.83;;;7.30;99.90;;;;;;5063148;28;20204;-64
2023/04/25 09:39:55;;;;;;;1.70;0.67;;;7.50;99.90;;;;;;5048028;28;21287;-65
2023/04/25 09:42:24;;;;;;;4.43;0.90;;;7.70;99.90;;;;;;5057515;28;20225;-64
2023/04/25 09:44:53;;;;;;;2.60;1.13;;;7.80;99.90;;;;;;5065107;28;20361;-65
2023/04/25 09:47:21;;;;;;;1.33;1.00;;;7.90;99.90;;;;;;5038845;28;20212;-65
2023/04/25 09:49:48;;;;;;;5.23;1.00;;;8.00;99.90;;;;;;5060976;28;20562;-64
2023/04/25 09:52:17;;;;;;;6.07;1.13;;;8.20;99.90;;;;;;5023678;28;20211;-64
2023/04/25 09:54:44;;;;;;;5.53;1.10;;;8.20;99.90;;;;;;5055951;28;20203;-64
2023/04/25 09:57:14;;;;;;;3.87;1.07;;;8.40;99.90;;;;;;5044516;28;20195;-64
2023/04/25 09:59:45;;;;;;;4.13;1.33;;;8.60;99.90;;;;;;5046155;28;20485;-65
2023/04/25 10:02:13;;;;;;;9.00;1.27;;;8.60;99.90;;;;;;5051822;28;20672;-64
2023/04/25 10:04:41;;;;;;;5.00;1.43;;;8.70;99.90;;;;;;5039344;28;21496;-64
2023/04/25 10:07:09;;;;;;;11.43;1.67;;;8.70;99.90;;;;;;5032681;28;20810;-64
2023/04/25 10:09:40;;;;;;;2.53;0.93;;;8.60;99.90;;;;;;5056362;28;20205;-65
2023/04/25 10:12:07;;;;;;;3.57;2.00;;;8.50;99.90;;;;;;5040275;28;20258;-64
2023/04/25 10:14:36;;;;;;;4.87;1.33;;;8.30;99.90;;;;;;5047557;28;20232;-65
2023/04/25 10:17:03;;;;;;;8.93;1.43;;;8.30;99.90;;;;;;5045908;28;20418;-64
2023/04/25 10:19:30;;;;;;;4.80;1.33;;;8.30;99.90;;;;;;5035914;28;20207;-64
2023/04/25 10:22:05;;;;;;;7.87;1.60;;;8.40;99.90;;;;;;5021366;28;20232;-64
2023/04/25 10:24:32;;;;;;;3.27;1.50;;;8.30;99.90;;;;;;5041411;28;20219;-64
2023/04/25 10:26:59;;;;;;;7.03;1.93;;;8.30;99.90;;;;;;5038361;28;20659;-64
2023/04/25 10:29:27;;;;;;;3.23;1.37;;;8.10;99.90;;;;;;5047580;28;20196;-64
2023/04/25 10:31:55;;;;;;;5.70;1.37;;;8.20;99.90;;;;;;5052314;28;20197;-65
2023/04/25 10:34:25;;;;;;;8.27;1.60;;;8.20;99.90;;;;;;5031446;28;20204;-65
2023/04/25 10:36:53;;;;;;;6.70;1.67;;;8.00;99.90;;;;;;5021396;28;20346;-64
2023/04/25 10:39:24;;;;;;;4.03;1.20;;;7.80;99.90;;;;;;5049126;28;20433;-64
2023/04/25 10:41:57;;;;;;;0.73;0.73;;;7.60;99.90;;;;;;5039493;28;20204;-65
2023/04/25 10:44:27;;;;;;;6.30;1.23;;;7.60;99.90;;;;;;5045967;28;20231;-64
2023/04/25 10:46:56;;;;;;;4.67;1.20;;;7.60;99.90;;;;;;5055103;28;20196;-64
2023/04/25 10:49:36;;;;;;;3.63;0.97;;;7.70;99.90;;;;;;5037586;28;20236;-64
2023/04/25 10:52:18;;;;;;;4.03;1.27;;;7.70;99.90;;;;;;5058076;28;20308;-64
2023/04/25 10:54:49;;;;;;;4.40;1.30;;;7.90;99.90;;;;;;5020708;28;20212;-64
2023/04/25 10:57:28;;;;;;;6.70;1.67;;;8.20;99.90;;;;;;5046592;28;20207;-64
2023/04/25 10:59:55;;;;;;;3.07;1.40;;;8.30;99.90;;;;;;5038744;28;20410;-64
2023/04/25 11:02:28;;;;;;;2.53;1.10;;;8.30;99.90;;;;;;5030003;28;20227;-64
2023/04/25 11:04:55;;;;;;;3.83;1.13;;;8.20;99.90;;;;;;5031286;28;20373;-64
2023/04/25 11:07:34;;;;;;;3.27;1.00;;;7.80;99.90;;;;;;5046361;28;20700;-64
2023/04/25 11:10:04;;;;;;;5.53;1.20;;;7.60;99.90;;;;;;5012221;28;20242;-64
2023/04/25 11:12:32;;;;;;;3.27;0.77;;;7.40;99.90;;;;;;5059037;28;20208;-64
2023/04/25 11:15:03;;;;;;;3.07;1.27;;;7.50;99.90;;;;;;5028293;28;20765;-64
2023/04/25 11:17:32;;;;;;;2.53;1.10;;;7.60;99.90;;;;;;5050925;28;20207;-64
2023/04/25 11:19:59;;;;;;;2.80;1.00;;;7.70;99.90;;;;;;5029987;28;20420;-64
2023/04/25 11:22:29;;;;;;;3.27;1.20;;;7.60;99.90;;;;;;5039012;28;20220;-64
2023/04/25 11:24:56;;;;;;;3.27;0.90;;;7.60;99.90;;;;;;5001451;28;21339;-64
2023/04/25 11:27:24;;;;;;;5.07;1.30;;;7.60;99.90;;;;;;5145029;22;20817;-64
2023/04/25 11:29:51;;;;;;;4.67;1.23;;;7.80;99.90;;;;;;5005310;28;20390;-64
2023/04/25 11:32:20;;;;;;;3.73;1.20;;;8.10;99.90;;;;;;5006666;28;20725;-64
2023/04/25 11:34:48;;;;;;;4.07;1.20;;;8.30;99.90;;;;;;5015760;28;20209;-64
2023/04/25 11:37:15;;;;;;;5.93;1.27;;;7.50;99.90;;;;;;5003270;28;20211;-64
2023/04/25 11:39:48;;;;;;;4.83;1.47;;;7.00;99.90;;;;;;4976246;28;20591;-64
2023/04/25 11:42:15;;;;;;;3.03;1.17;;;6.90;99.90;;;;;;5022824;28;20202;-65
2023/04/25 11:44:42;;;;;;;3.40;1.20;;;6.90;99.90;;;;;;5015499;28;20230;-64
2023/04/25 11:47:09;;;;;;;3.13;1.33;;;6.90;99.90;;;;;;5013994;28;20220;-64
2023/04/25 11:49:36;;;;;;;2.43;1.03;;;7.00;99.90;;;;;;5029350;28;20610;-64
2023/04/25 11:52:08;;;;;;;2.50;0.73;;;7.20;99.90;;;;;;5002155;28;20415;-64
2023/04/25 11:54:36;;;;;;;4.30;1.20;;;7.40;99.90;;;;;;5003727;28;20692;-64
2023/04/25 11:57:04;;;;;;;2.93;1.03;;;7.70;99.90;;;;;;4998754;28;20257;-64
2023/04/25 11:59:31;;;;;;;4.13;1.33;;;7.90;99.90;;;;;;5007890;28;20205;-64
2023/04/25 12:01:59;;;;;;;11.37;1.33;;;8.00;99.90;;;;;;5006633;28;21002;-64
2023/04/25 12:04:26;;;;;;;6.37;1.43;;;8.20;99.90;;;;;;5027619;28;20257;-64
2023/04/25 12:06:55;;;;;;;4.33;1.00;;;8.30;99.90;;;;;;4997798;28;23080;-64
2023/04/25 12:09:31;;;;;;;7.73;1.53;;;8.30;99.90;;;;;;5016888;28;20805;-64
2023/04/25 12:11:59;;;;;;;5.23;1.30;;;8.50;99.90;;;;;;4983947;28;20719;-64
2023/04/25 12:14:28;;;;;;;4.87;1.10;;;8.50;99.90;;;;;;5023345;28;20225;-65
2023/04/25 12:16:57;;;;;;;3.23;1.27;;;8.40;99.90;;;;;;4994207;28;20209;-64
2023/04/25 12:19:24;;;;;;;3.27;1.03;;;8.50;99.90;;;;;;5018112;28;20228;-64
2023/04/25 12:21:51;;;;;;;7.40;1.70;;;8.80;99.90;;;;;;5012644;28;20411;-64
2023/04/25 12:24:23;;;;;;;7.93;1.50;;;9.10;99.90;;;;;;4989097;28;20236;-64
2023/04/25 12:26:53;;;;;;;2.97;1.50;;;8.90;99.90;;;;;;4983062;28;20450;-64
2023/04/25 12:29:22;;;;;;;6.10;1.63;;;8.80;99.90;;;;;;5020960;28;20615;-64
2023/04/25 12:31:49;;;;;;;4.23;1.33;;;8.60;99.90;;;;;;4995446;28;20202;-64
2023/04/25 12:34:16;;;;;;;4.67;1.63;;;8.50;99.90;;;;;;5027935;28;20538;-63
2023/04/25 12:36:43;;;;;;;6.77;2.00;;;8.60;99.90;;;;;;5025238;28;20254;-64
2023/04/25 12:39:15;;;;;;;3.57;0.87;;;8.60;99.90;;;;;;5002926;28;20198;-64
2023/04/25 12:41:42;;;;;;;1.83;0.90;;;8.60;99.90;;;;;;4989224;28;20218;-64
2023/04/25 12:44:11;;;;;;;1.83;1.00;;;8.70;99.90;;;;;;5003578;28;20233;-64
2023/04/25 12:46:37;;;;;;;4.87;0.90;;;8.80;99.90;;;;;;5009891;28;20616;-64
2023/04/25 12:49:06;;;;;;;6.13;1.13;;;9.00;99.90;;;;;;5002029;28;20233;-64
2023/04/25 12:51:32;;;;;;;2.20;1.17;;;9.00;99.90;;;;;;5020106;28;20225;-64
2023/04/25 12:53:59;;;;;;;3.67;1.20;;;9.00;99.90;;;;;;4997015;28;20244;-64
2023/04/25 12:56:27;;;;;;;5.00;1.30;;;9.00;99.90;;;;;;5007793;28;20205;-64
2023/04/25 12:58:54;;;;;;;3.97;1.10;;;9.10;99.90;;;;;;4989634;28;21074;-64